(°C)
23°
26°
28°
29°
30°
30°
29°
(°C)
23°
26°
28°
30°
30°
29°
28°
شرق
ESE
ESE
SE
SE
SSE
SSE
(كم/سا)
3-7
5-9
6-12
8-16
10-20
12-26
13-25
(مم)
0
0
0
0
0
0
0
(%)
0
0
0
0
0
0
0

مستوى ارتفاع الشمس

/ 41.6°
sun-icon
UV 6
07:56
19:55
قمر المساء (264°)
00:00
15:01

متر لAlcantarilla (LERI)

الوقت الشروط درجة الحرارة/
نقطة الندى
رياح مجال رؤية حالة الطقس غيوم الضغط تغيير خام
VFR 24°C / 14°C variable 2kt >10km - Clouds and Visibility OK 1022 No Significant change LERI 280930Z VRB02KT CAVOK 24/14 Q1022 NOSIG
VFR 22°C / 14°C variable 2kt >10km - Clouds and Visibility OK 1022 No Significant change LERI 280900Z VRB02KT CAVOK 22/14 Q1022 NOSIG
VFR 19°C / 13°C variable 0kt >10km - Clouds and Visibility OK 1022 No Significant change LERI 280800Z 00000KT CAVOK 19/13 Q1022 NOSIG
VFR 18°C / 13°C variable 1kt >10km - Clouds and Visibility OK 1021 No Significant change LERI 280730Z VRB01KT CAVOK 18/13 Q1021 NOSIG
VFR 16°C / 13°C variable 0kt >10km - Clouds and Visibility OK 1021 No Significant change LERI 280700Z 00000KT CAVOK 16/13 Q1021 NOSIG
VFR 14°C / 12°C 240º 3kt >10km - Clouds and Visibility OK 1021 No Significant change LERI 280630Z 24003KT CAVOK 14/12 Q1021 NOSIG
VFR 13°C / 12°C 220º 4kt >10km - Clouds and Visibility OK 1021 No Significant change LERI 280600Z 22004KT CAVOK 13/12 Q1021 NOSIG
VFR 25°C / 13°C 220º 8kt >10km - Clouds and Visibility OK 1019 No Significant change LERI 271800Z 22008KT CAVOK 25/13 Q1019 NOSIG
VFR 26°C / 12°C 220º 9kt >10km - Clouds and Visibility OK 1019 No Significant change LERI 271730Z 22009KT CAVOK 26/12 Q1019 NOSIG
VFR 28°C / 11°C 230º 8kt >10km - Clouds and Visibility OK 1019 No Significant change LERI 271700Z 23008KT CAVOK 28/11 Q1019 NOSIG
VFR 30°C / 12°C 220º variable 160º to 250º 6kt >10km - Clouds and Visibility OK 1018 No Significant change LERI 271630Z 22006KT 160V250 CAVOK 30/12 Q1018 NOSIG
VFR 31°C / 11°C 160º 9kt >10km - Clouds and Visibility OK 1019 No Significant change LERI 271600Z 16009KT CAVOK 31/11 Q1019 NOSIG
VFR 32°C / 10°C 140º variable 070º to 170º 7kt >10km - Clouds and Visibility OK 1019 No Significant change LERI 271530Z 14007KT 070V170 CAVOK 32/10 Q1019 NOSIG
VFR 32°C / 11°C 150º variable 100º to 260º 6kt >10km - Clouds and Visibility OK 1019 No Significant change LERI 271500Z 15006KT 100V260 CAVOK 32/11 Q1019 NOSIG
VFR 32°C / 12°C 100º variable 010º to 180º 3kt >10km - Clouds and Visibility OK 1019 No Significant change LERI 271430Z 10003KT 010V180 CAVOK 32/12 Q1019 NOSIG
VFR 32°C / 12°C 110º 2kt >10km - Clouds and Visibility OK 1019 No Significant change LERI 271400Z 11002KT CAVOK 32/12 Q1019 NOSIG
VFR 31°C / 13°C variable 4kt >10km - Clouds and Visibility OK 1019 No Significant change LERI 271330Z VRB04KT CAVOK 31/13 Q1019 NOSIG
VFR 31°C / 13°C 150º 2kt >10km - Clouds and Visibility OK 1020 No Significant change LERI 271300Z 15002KT CAVOK 31/13 Q1020 NOSIG
VFR 31°C / 13°C variable 2kt >10km - Clouds and Visibility OK 1020 No Significant change LERI 271230Z VRB02KT CAVOK 31/13 Q1020 NOSIG
VFR 30°C / 14°C 110º variable 050º to 200º 3kt >10km - Clouds and Visibility OK 1020 No Significant change LERI 271200Z 11003KT 050V200 CAVOK 30/14 Q1020 NOSIG
VFR 29°C / 14°C 30º variable 300º to 100º 3kt >10km - Clouds and Visibility OK 1021 No Significant change LERI 271130Z 03003KT 300V100 CAVOK 29/14 Q1021 NOSIG
VFR 29°C / 14°C variable 3kt >10km - Clouds and Visibility OK 1021 No Significant change LERI 271100Z VRB03KT CAVOK 29/14 Q1021 NOSIG
VFR 27°C / 14°C 320º 1kt >10km - Clouds and Visibility OK 1021 No Significant change LERI 271030Z 32001KT CAVOK 27/14 Q1021 NOSIG
VFR 26°C / 14°C variable 3kt >10km - Clouds and Visibility OK 1021 No Significant change LERI 271000Z VRB03KT CAVOK 26/14 Q1021 NOSIG

VFR

24°C / 14°C

[أكثر]
رياح variable 2kt
مجال رؤية >10km
حالة الطقس -
غيوم Clouds and Visibility OK
الضغط 1022
تغيير No Significant change
خام LERI 280930Z VRB02KT CAVOK 24/14 Q1022 NOSIG

VFR

22°C / 14°C

[أكثر]
رياح variable 2kt
مجال رؤية >10km
حالة الطقس -
غيوم Clouds and Visibility OK
الضغط 1022
تغيير No Significant change
خام LERI 280900Z VRB02KT CAVOK 22/14 Q1022 NOSIG

VFR

19°C / 13°C

[أكثر]
رياح variable 0kt
مجال رؤية >10km
حالة الطقس -
غيوم Clouds and Visibility OK
الضغط 1022
تغيير No Significant change
خام LERI 280800Z 00000KT CAVOK 19/13 Q1022 NOSIG

VFR

18°C / 13°C

[أكثر]
رياح variable 1kt
مجال رؤية >10km
حالة الطقس -
غيوم Clouds and Visibility OK
الضغط 1021
تغيير No Significant change
خام LERI 280730Z VRB01KT CAVOK 18/13 Q1021 NOSIG

VFR

16°C / 13°C

[أكثر]
رياح variable 0kt
مجال رؤية >10km
حالة الطقس -
غيوم Clouds and Visibility OK
الضغط 1021
تغيير No Significant change
خام LERI 280700Z 00000KT CAVOK 16/13 Q1021 NOSIG

VFR

14°C / 12°C

[أكثر]
رياح 240º 3kt
مجال رؤية >10km
حالة الطقس -
غيوم Clouds and Visibility OK
الضغط 1021
تغيير No Significant change
خام LERI 280630Z 24003KT CAVOK 14/12 Q1021 NOSIG

VFR

13°C / 12°C

[أكثر]
رياح 220º 4kt
مجال رؤية >10km
حالة الطقس -
غيوم Clouds and Visibility OK
الضغط 1021
تغيير No Significant change
خام LERI 280600Z 22004KT CAVOK 13/12 Q1021 NOSIG

VFR

25°C / 13°C

[أكثر]
رياح 220º 8kt
مجال رؤية >10km
حالة الطقس -
غيوم Clouds and Visibility OK
الضغط 1019
تغيير No Significant change
خام LERI 271800Z 22008KT CAVOK 25/13 Q1019 NOSIG

VFR

26°C / 12°C

[أكثر]
رياح 220º 9kt
مجال رؤية >10km
حالة الطقس -
غيوم Clouds and Visibility OK
الضغط 1019
تغيير No Significant change
خام LERI 271730Z 22009KT CAVOK 26/12 Q1019 NOSIG

VFR

28°C / 11°C

[أكثر]
رياح 230º 8kt
مجال رؤية >10km
حالة الطقس -
غيوم Clouds and Visibility OK
الضغط 1019
تغيير No Significant change
خام LERI 271700Z 23008KT CAVOK 28/11 Q1019 NOSIG

VFR

30°C / 12°C

[أكثر]
رياح 220º variable 160º to 250º 6kt
مجال رؤية >10km
حالة الطقس -
غيوم Clouds and Visibility OK
الضغط 1018
تغيير No Significant change
خام LERI 271630Z 22006KT 160V250 CAVOK 30/12 Q1018 NOSIG

VFR

31°C / 11°C

[أكثر]
رياح 160º 9kt
مجال رؤية >10km
حالة الطقس -
غيوم Clouds and Visibility OK
الضغط 1019
تغيير No Significant change
خام LERI 271600Z 16009KT CAVOK 31/11 Q1019 NOSIG

VFR

32°C / 10°C

[أكثر]
رياح 140º variable 070º to 170º 7kt
مجال رؤية >10km
حالة الطقس -
غيوم Clouds and Visibility OK
الضغط 1019
تغيير No Significant change
خام LERI 271530Z 14007KT 070V170 CAVOK 32/10 Q1019 NOSIG

VFR

32°C / 11°C

[أكثر]
رياح 150º variable 100º to 260º 6kt
مجال رؤية >10km
حالة الطقس -
غيوم Clouds and Visibility OK
الضغط 1019
تغيير No Significant change
خام LERI 271500Z 15006KT 100V260 CAVOK 32/11 Q1019 NOSIG

VFR

32°C / 12°C

[أكثر]
رياح 100º variable 010º to 180º 3kt
مجال رؤية >10km
حالة الطقس -
غيوم Clouds and Visibility OK
الضغط 1019
تغيير No Significant change
خام LERI 271430Z 10003KT 010V180 CAVOK 32/12 Q1019 NOSIG

VFR

32°C / 12°C

[أكثر]
رياح 110º 2kt
مجال رؤية >10km
حالة الطقس -
غيوم Clouds and Visibility OK
الضغط 1019
تغيير No Significant change
خام LERI 271400Z 11002KT CAVOK 32/12 Q1019 NOSIG

VFR

31°C / 13°C

[أكثر]
رياح variable 4kt
مجال رؤية >10km
حالة الطقس -
غيوم Clouds and Visibility OK
الضغط 1019
تغيير No Significant change
خام LERI 271330Z VRB04KT CAVOK 31/13 Q1019 NOSIG

VFR

31°C / 13°C

[أكثر]
رياح 150º 2kt
مجال رؤية >10km
حالة الطقس -
غيوم Clouds and Visibility OK
الضغط 1020
تغيير No Significant change
خام LERI 271300Z 15002KT CAVOK 31/13 Q1020 NOSIG

VFR

31°C / 13°C

[أكثر]
رياح variable 2kt
مجال رؤية >10km
حالة الطقس -
غيوم Clouds and Visibility OK
الضغط 1020
تغيير No Significant change
خام LERI 271230Z VRB02KT CAVOK 31/13 Q1020 NOSIG

VFR

30°C / 14°C

[أكثر]
رياح 110º variable 050º to 200º 3kt
مجال رؤية >10km
حالة الطقس -
غيوم Clouds and Visibility OK
الضغط 1020
تغيير No Significant change
خام LERI 271200Z 11003KT 050V200 CAVOK 30/14 Q1020 NOSIG

VFR

29°C / 14°C

[أكثر]
رياح 30º variable 300º to 100º 3kt
مجال رؤية >10km
حالة الطقس -
غيوم Clouds and Visibility OK
الضغط 1021
تغيير No Significant change
خام LERI 271130Z 03003KT 300V100 CAVOK 29/14 Q1021 NOSIG

VFR

29°C / 14°C

[أكثر]
رياح variable 3kt
مجال رؤية >10km
حالة الطقس -
غيوم Clouds and Visibility OK
الضغط 1021
تغيير No Significant change
خام LERI 271100Z VRB03KT CAVOK 29/14 Q1021 NOSIG

VFR

27°C / 14°C

[أكثر]
رياح 320º 1kt
مجال رؤية >10km
حالة الطقس -
غيوم Clouds and Visibility OK
الضغط 1021
تغيير No Significant change
خام LERI 271030Z 32001KT CAVOK 27/14 Q1021 NOSIG

VFR

26°C / 14°C

[أكثر]
رياح variable 3kt
مجال رؤية >10km
حالة الطقس -
غيوم Clouds and Visibility OK
الضغط 1021
تغيير No Significant change
خام LERI 271000Z VRB03KT CAVOK 26/14 Q1021 NOSIG

انقر لAlcantarilla (LERI)

From till


Maximum Temperature 29ºC on . Minimum Temperature 15ºC on .
From till Wind variable 3kt. Visibility 10km or more. Nil Significant Cloud.
Becoming from till Wind 140º 10kt. Visibility 10km or more. Nil Significant Cloud.
Becoming from till Wind variable 3kt. Visibility 10km or more. Nil Significant Cloud.
With 30% probability, Temporarly from till Visibility 4000m. Mist . Broken Clouds 1000ft.

خام: TAF LERI 280500Z 2806/2906 VRB03KT CAVOK TX29/2814Z TN15/2806Z BECMG 2810/2812 14010KT BECMG 2818/2820 VRB03KT PROB30 TEMPO 2902/2906 4000 BR BKN010

صور الأقمار الصناعية الملتقطة و الأمطار حالياً لAlcantarilla, أسبانيا

المؤشر يدل على موقع Alcantarilla. [أكثر]

تجمع صورة الأقمار الصناعية في الوقت الفعلي بين الضوء المرئي أثناء النهار والأشعة تحت الحمراء أثناء الليل. لا تبدو الصورة مظلمة ليلاً، لأن الأشعة تحت الحمراء يمكنها الكشف عن الاختلافات في درجة الحرارة. لسوء الحظ ، يصعب التمييز بين السحب المنخفضة والضباب ودرجات حرارة الأرض ، وبالتالي يمكن أن تكون الصور غير مرئية تقريبًا أثناء الليل. يتم تحديث صور الأقمار الصناعية Meteosat الخاصة بأوروبا في الوقت الفعلي كل 5 دقائق، بينما يتم تحديث صور GOES-16 / GOES-17 (أمريكا الشمالية والجنوبية) و Himawari (آسيا) كل 10 دقائق.

يقدر هطول الأمطار من الرادار والأقمار الصناعية. تقديرات هطول الأمطار ليلا من قبل الأقمار الصناعية هي أقل دقة من النهار. اللون البرتقالي يعبر الأماكن حيث تم الكشف عن البرق (أكثر من أوروبا).

حقوق النسخ 2021 EUMETSAT / meteoblue. بيانات البرق مقدمة من nowcast.

رادار لAlcantarilla

رذاذ
ضوء
معتدل
ثقيل
ثقيل جدا
وابل

مؤشر المكان يشير الى Alcantarilla. تظهر في هذه الرسوم المتحركة هطول الامطار بالرادار للساعات ال1 الماضية. رذاذ أو تساقط ثلوج خفيف قد يكون غير مرئي للرادار. كثافة هطول الأمطار مرمزة بالألوان وتتراوح من الأزرق الفاتح إلى البرتقالي.
Radar data source: AEMET.

حالة الطقس الحالية والتحذيرات

EUMETNET – MeteoAlarm

pictomap

المصدر: AEMET

تأخر الوقت بين هذا الموقع و موقعwww.meteoalarm.eu ممكنة، لأحدث المعلومات حول مستويات الانذار والتي تم نشرها بالمشاركة مع منظمة خدمات الأرصاد الجوية الوطنية يرجى استخدام www.meteoalarm.eu.